Winton, Minnesota
Current Conditions -  °F | °C
As of 8:33 AM on Friday 28 Nov 2014 (Local Time) from KELO Reporting Station
Light Snow Light Snow  
Wind Chill:   Ceiling: 3500
Heat Index:   Visibility: 10mi
Dew Point:   Wind: 3mph
Humidity: 73%   Direction: 170°S
Pressure: 30.01"   Gusts: NA
Location:  47.93°N, 91.8°W
Report Text: KELO 281433Z AUTO 17003KT 10SM -SN OVC035 M13/M17 A3001 RMK AO2
Loading
Personal Weather Stations






























Interactive Weather Map New forecast layout! Learn more

10-Day Weather Forecast

Advertisements
Track Severe Weather on mobile